sensor_id;sensor_type;location;lat;lon;timestamp;pressure;altitude;pressure_sealevel;temperature;humidity
11212;BME280;5663;50.864;12.096;2023-02-19T00:01:54;99408.47;;;11.39;71.78
11212;BME280;5663;50.864;12.096;2023-02-19T00:04:22;99406.84;;;11.36;71.85
11212;BME280;5663;50.864;12.096;2023-02-19T00:06:51;99419.72;;;11.39;71.96
11212;BME280;5663;50.864;12.096;2023-02-19T00:09:20;99410.13;;;11.40;72.09
11212;BME280;5663;50.864;12.096;2023-02-19T00:11:50;99401.56;;;11.38;72.22
11212;BME280;5663;50.864;12.096;2023-02-19T00:14:19;99398.13;;;11.37;72.69
11212;BME280;5663;50.864;12.096;2023-02-19T00:16:48;99395.53;;;11.37;72.94
11212;BME280;5663;50.864;12.096;2023-02-19T00:19:18;99392.06;;;11.37;73.17
11212;BME280;5663;50.864;12.096;2023-02-19T00:21:50;99387.78;;;11.35;73.56
11212;BME280;5663;50.864;12.096;2023-02-19T00:24:21;99384.25;;;11.37;73.73
11212;BME280;5663;50.864;12.096;2023-02-19T00:26:51;99377.38;;;11.35;73.75
11212;BME280;5663;50.864;12.096;2023-02-19T00:29:21;99377.47;;;11.34;74.13
11212;BME280;5663;50.864;12.096;2023-02-19T00:31:54;99374.19;;;11.30;74.11
11212;BME280;5663;50.864;12.096;2023-02-19T00:34:23;99368.81;;;11.33;74.44
11212;BME280;5663;50.864;12.096;2023-02-19T00:36:51;99361.31;;;11.27;74.26
11212;BME280;5663;50.864;12.096;2023-02-19T00:39:19;99331.69;;;11.14;74.41
11212;BME280;5663;50.864;12.096;2023-02-19T00:41:47;99353.19;;;11.33;74.45
11212;BME280;5663;50.864;12.096;2023-02-19T00:44:16;99340.34;;;11.30;74.45
11212;BME280;5663;50.864;12.096;2023-02-19T00:46:46;99338.56;;;11.31;74.57
11212;BME280;5663;50.864;12.096;2023-02-19T00:49:17;99349.81;;;11.31;74.61
11212;BME280;5663;50.864;12.096;2023-02-19T00:51:45;99346.28;;;11.32;74.69
11212;BME280;5663;50.864;12.096;2023-02-19T00:54:14;99340.25;;;11.32;74.82
11212;BME280;5663;50.864;12.096;2023-02-19T00:56:41;99339.41;;;11.31;74.71
11212;BME280;5663;50.864;12.096;2023-02-19T00:59:10;99323.94;;;11.28;74.85
11212;BME280;5663;50.864;12.096;2023-02-19T01:01:41;99331.69;;;11.30;74.94
11212;BME280;5663;50.864;12.096;2023-02-19T01:04:10;99335.19;;;11.29;74.93
11212;BME280;5663;50.864;12.096;2023-02-19T01:06:40;99319.75;;;11.26;75.15
11212;BME280;5663;50.864;12.096;2023-02-19T01:09:07;99312.69;;;11.28;74.89
11212;BME280;5663;50.864;12.096;2023-02-19T01:11:37;99279.94;;;11.08;75.01
11212;BME280;5663;50.864;12.096;2023-02-19T01:14:04;99301.53;;;11.26;75.09
11212;BME280;5663;50.864;12.096;2023-02-19T01:16:32;99281.13;;;11.18;75.07
11212;BME280;5663;50.864;12.096;2023-02-19T01:19:03;99281.03;;;11.20;75.05
11212;BME280;5663;50.864;12.096;2023-02-19T01:21:32;99278.28;;;11.23;75.24
11212;BME280;5663;50.864;12.096;2023-02-19T01:23:59;99274.84;;;11.22;75.29
11212;BME280;5663;50.864;12.096;2023-02-19T01:26:30;99280.97;;;11.21;75.44
11212;BME280;5663;50.864;12.096;2023-02-19T01:28:59;99272.41;;;11.19;75.60
11212;BME280;5663;50.864;12.096;2023-02-19T01:31:29;99265.50;;;11.18;75.45
11212;BME280;5663;50.864;12.096;2023-02-19T01:34:00;99262.25;;;11.15;75.80
11212;BME280;5663;50.864;12.096;2023-02-19T01:36:32;99262.16;;;11.16;75.92
11212;BME280;5663;50.864;12.096;2023-02-19T01:39:04;99264.84;;;11.15;76.01
11212;BME280;5663;50.864;12.096;2023-02-19T01:41:35;99264.00;;;11.14;75.92
11212;BME280;5663;50.864;12.096;2023-02-19T01:46:52;99238.97;;;11.12;76.22
11212;BME280;5663;50.864;12.096;2023-02-19T01:49:26;99204.41;;;10.94;76.20
11212;BME280;5663;50.864;12.096;2023-02-19T01:51:59;99232.09;;;11.10;76.28
11212;BME280;5663;50.864;12.096;2023-02-19T01:54:29;99233.88;;;11.10;76.46
11212;BME280;5663;50.864;12.096;2023-02-19T01:57:01;99208.25;;;11.02;76.27
11212;BME280;5663;50.864;12.096;2023-02-19T01:59:32;99213.13;;;11.08;76.53
11212;BME280;5663;50.864;12.096;2023-02-19T02:02:00;99208.75;;;11.09;76.46
11212;BME280;5663;50.864;12.096;2023-02-19T02:04:29;99207.06;;;11.08;76.62
11212;BME280;5663;50.864;12.096;2023-02-19T02:07:02;99198.69;;;11.03;76.69
11212;BME280;5663;50.864;12.096;2023-02-19T02:09:51;99202.81;;;11.07;76.57
11212;BME280;5663;50.864;12.096;2023-02-19T02:12:39;99173.00;;;10.97;76.37
11212;BME280;5663;50.864;12.096;2023-02-19T02:15:08;99172.38;;;10.93;76.24
11212;BME280;5663;50.864;12.096;2023-02-19T02:17:44;99199.19;;;11.09;76.39
11212;BME280;5663;50.864;12.096;2023-02-19T02:20:27;99178.03;;;11.00;76.49
11212;BME280;5663;50.864;12.096;2023-02-19T02:23:08;99172.50;;;11.06;76.48
11212;BME280;5663;50.864;12.096;2023-02-19T02:25:58;99163.94;;;11.04;76.27
11212;BME280;5663;50.864;12.096;2023-02-19T02:28:43;99166.47;;;11.05;76.43
11212;BME280;5663;50.864;12.096;2023-02-19T02:31:16;99162.25;;;11.03;76.52
11212;BME280;5663;50.864;12.096;2023-02-19T02:33:51;99147.50;;;10.88;76.55
11212;BME280;5663;50.864;12.096;2023-02-19T02:36:23;99166.53;;;11.04;76.40
11212;BME280;5663;50.864;12.096;2023-02-19T02:38:54;99161.50;;;11.01;76.68
11212;BME280;5663;50.864;12.096;2023-02-19T02:41:23;99165.78;;;11.02;76.51
11212;BME280;5663;50.864;12.096;2023-02-19T02:43:52;99155.38;;;11.02;76.72
11212;BME280;5663;50.864;12.096;2023-02-19T02:46:27;99144.97;;;11.02;76.56
11212;BME280;5663;50.864;12.096;2023-02-19T02:48:58;99079.59;;;10.62;76.35
11212;BME280;5663;50.864;12.096;2023-02-19T02:51:30;99147.38;;;11.05;76.42
11212;BME280;5663;50.864;12.096;2023-02-19T02:54:04;99142.13;;;11.06;76.31
11212;BME280;5663;50.864;12.096;2023-02-19T02:56:51;99131.78;;;11.05;76.08
11212;BME280;5663;50.864;12.096;2023-02-19T02:59:22;99119.03;;;11.00;75.91
11212;BME280;5663;50.864;12.096;2023-02-19T03:01:55;99123.91;;;11.06;75.91
11212;BME280;5663;50.864;12.096;2023-02-19T03:04:40;99127.50;;;11.04;75.75
11212;BME280;5663;50.864;12.096;2023-02-19T03:07:26;99117.94;;;11.04;75.80
11212;BME280;5663;50.864;12.096;2023-02-19T03:09:58;99052.81;;;10.60;75.54
11212;BME280;5663;50.864;12.096;2023-02-19T03:12:29;99109.38;;;11.02;75.59
11212;BME280;5663;50.864;12.096;2023-02-19T03:15:24;99116.16;;;11.05;75.50
11212;BME280;5663;50.864;12.096;2023-02-19T03:18:15;99117.25;;;11.01;75.36
11212;BME280;5663;50.864;12.096;2023-02-19T03:21:03;99113.34;;;10.94;75.26
11212;BME280;5663;50.864;12.096;2023-02-19T03:23:34;99119.88;;;11.01;75.55
11212;BME280;5663;50.864;12.096;2023-02-19T03:26:20;99127.50;;;11.04;75.32
11212;BME280;5663;50.864;12.096;2023-02-19T03:28:50;99117.03;;;11.05;75.32
11212;BME280;5663;50.864;12.096;2023-02-19T03:31:37;99018.44;;;10.55;74.99
11212;BME280;5663;50.864;12.096;2023-02-19T03:34:11;99111.72;;;11.07;75.25
11212;BME280;5663;50.864;12.096;2023-02-19T03:36:44;99107.34;;;11.07;75.11
11212;BME280;5663;50.864;12.096;2023-02-19T03:39:14;99106.50;;;11.07;75.04
11212;BME280;5663;50.864;12.096;2023-02-19T03:41:50;99105.69;;;11.06;75.06
11212;BME280;5663;50.864;12.096;2023-02-19T03:44:26;99076.81;;;10.95;74.78
11212;BME280;5663;50.864;12.096;2023-02-19T03:47:02;99102.66;;;11.14;74.75
11212;BME280;5663;50.864;12.096;2023-02-19T03:49:41;99103.47;;;11.15;74.77
11212;BME280;5663;50.864;12.096;2023-02-19T03:52:16;99091.28;;;11.15;74.78
11212;BME280;5663;50.864;12.096;2023-02-19T03:54:51;99105.16;;;11.16;74.71
11212;BME280;5663;50.864;12.096;2023-02-19T03:57:29;99092.06;;;11.17;74.65
11212;BME280;5663;50.864;12.096;2023-02-19T04:00:03;99077.88;;;11.07;74.63
11212;BME280;5663;50.864;12.096;2023-02-19T04:02:36;99098.94;;;11.18;74.73
11212;BME280;5663;50.864;12.096;2023-02-19T04:05:13;99092.06;;;11.17;74.88
11212;BME280;5663;50.864;12.096;2023-02-19T04:07:45;99097.06;;;11.20;74.90
11212;BME280;5663;50.864;12.096;2023-02-19T04:10:16;99093.72;;;11.18;75.03
11212;BME280;5663;50.864;12.096;2023-02-19T04:12:47;99097.25;;;11.17;75.34
11212;BME280;5663;50.864;12.096;2023-02-19T04:15:19;99090.38;;;11.16;75.71
11212;BME280;5663;50.864;12.096;2023-02-19T04:17:57;99093.72;;;11.18;75.60
11212;BME280;5663;50.864;12.096;2023-02-19T04:20:29;99086.75;;;11.19;75.31
11212;BME280;5663;50.864;12.096;2023-02-19T04:23:01;99098.94;;;11.18;75.55
11212;BME280;5663;50.864;12.096;2023-02-19T04:25:30;99087.75;;;11.16;75.36
11212;BME280;5663;50.864;12.096;2023-02-19T04:27:59;99072.97;;;11.02;75.25
11212;BME280;5663;50.864;12.096;2023-02-19T04:30:29;99102.28;;;11.20;75.24
11212;BME280;5663;50.864;12.096;2023-02-19T04:32:57;99096.16;;;11.21;75.09
11212;BME280;5663;50.864;12.096;2023-02-19T04:35:26;99109.91;;;11.23;74.84
11212;BME280;5663;50.864;12.096;2023-02-19T04:37:55;99112.41;;;11.25;74.86
11212;BME280;5663;50.864;12.096;2023-02-19T04:40:23;99101.09;;;11.26;74.74
11212;BME280;5663;50.864;12.096;2023-02-19T04:42:51;99101.94;;;11.26;74.75
11212;BME280;5663;50.864;12.096;2023-02-19T04:45:18;99102.66;;;11.28;74.94
11212;BME280;5663;50.864;12.096;2023-02-19T04:47:46;99079.94;;;11.16;74.92
11212;BME280;5663;50.864;12.096;2023-02-19T04:50:15;99107.13;;;11.26;74.91
11212;BME280;5663;50.864;12.096;2023-02-19T04:52:43;99100.16;;;11.27;74.84
11212;BME280;5663;50.864;12.096;2023-02-19T04:55:13;99098.41;;;11.27;74.68
11212;BME280;5663;50.864;12.096;2023-02-19T04:57:41;99099.22;;;11.28;74.75
11212;BME280;5663;50.864;12.096;2023-02-19T05:00:09;99089.25;;;11.20;74.88
11212;BME280;5663;50.864;12.096;2023-02-19T05:02:38;99091.69;;;11.23;74.64
11212;BME280;5663;50.864;12.096;2023-02-19T05:05:06;99111.25;;;11.30;74.64
11212;BME280;5663;50.864;12.096;2023-02-19T05:07:34;99120.72;;;11.31;74.49
11212;BME280;5663;50.864;12.096;2023-02-19T05:10:04;99115.50;;;11.31;74.48
11212;BME280;5663;50.864;12.096;2023-02-19T05:12:34;99106.75;;;11.32;74.40
11212;BME280;5663;50.864;12.096;2023-02-19T05:15:03;98975.34;;;10.51;74.44
11212;BME280;5663;50.864;12.096;2023-02-19T05:17:32;99111.06;;;11.33;74.24
11212;BME280;5663;50.864;12.096;2023-02-19T05:20:02;99125.00;;;11.32;74.15
11212;BME280;5663;50.864;12.096;2023-02-19T05:22:30;99123.25;;;11.33;74.23
11212;BME280;5663;50.864;12.096;2023-02-19T05:24:58;99082.34;;;11.05;73.91
11212;BME280;5663;50.864;12.096;2023-02-19T05:27:26;99125.75;;;11.34;74.04
11212;BME280;5663;50.864;12.096;2023-02-19T05:29:55;99129.19;;;11.35;74.21
11212;BME280;5663;50.864;12.096;2023-02-19T05:32:22;99126.69;;;11.33;74.20
11212;BME280;5663;50.864;12.096;2023-02-19T05:34:50;99137.00;;;11.35;74.37
11212;BME280;5663;50.864;12.096;2023-02-19T05:37:18;99139.50;;;11.37;74.28
11212;BME280;5663;50.864;12.096;2023-02-19T05:39:47;99121.28;;;11.37;74.42
11212;BME280;5663;50.864;12.096;2023-02-19T05:42:15;99126.50;;;11.37;74.45
11212;BME280;5663;50.864;12.096;2023-02-19T05:44:43;99139.50;;;11.37;74.63
11212;BME280;5663;50.864;12.096;2023-02-19T05:47:12;99148.25;;;11.35;74.96
11212;BME280;5663;50.864;12.096;2023-02-19T05:49:40;99150.28;;;11.30;75.36
11212;BME280;5663;50.864;12.096;2023-02-19T05:52:07;99122.13;;;11.07;75.52
11212;BME280;5663;50.864;12.096;2023-02-19T05:54:35;99157.53;;;11.25;75.83
11212;BME280;5663;50.864;12.096;2023-02-19T05:57:03;99169.94;;;11.20;76.28
11212;BME280;5663;50.864;12.096;2023-02-19T05:59:30;99173.66;;;11.16;76.30
11212;BME280;5663;50.864;12.096;2023-02-19T06:01:57;99192.81;;;11.15;76.65
11212;BME280;5663;50.864;12.096;2023-02-19T06:04:26;99192.97;;;11.12;76.74
11212;BME280;5663;50.864;12.096;2023-02-19T06:06:54;99187.72;;;10.98;77.11
11212;BME280;5663;50.864;12.096;2023-02-19T06:09:22;99215.81;;;11.07;77.26
11212;BME280;5663;50.864;12.096;2023-02-19T06:11:50;99209.09;;;11.03;77.43
11212;BME280;5663;50.864;12.096;2023-02-19T06:14:17;99217.66;;;11.05;77.58
11212;BME280;5663;50.864;12.096;2023-02-19T06:16:46;99224.72;;;11.03;77.78
11212;BME280;5663;50.864;12.096;2023-02-19T06:19:14;99194.69;;;10.81;78.03
11212;BME280;5663;50.864;12.096;2023-02-19T06:21:43;99229.34;;;10.98;78.09
11212;BME280;5663;50.864;12.096;2023-02-19T06:24:12;99233.63;;;10.99;77.90
11212;BME280;5663;50.864;12.096;2023-02-19T06:26:39;99240.66;;;10.97;77.87
11212;BME280;5663;50.864;12.096;2023-02-19T06:29:07;99215.50;;;10.97;77.68
11212;BME280;5663;50.864;12.096;2023-02-19T06:31:34;99226.13;;;10.93;77.99
11212;BME280;5663;50.864;12.096;2023-02-19T06:34:03;99222.00;;;10.89;77.92
11212;BME280;5663;50.864;12.096;2023-02-19T06:36:31;99228.31;;;10.84;77.97
11212;BME280;5663;50.864;12.096;2023-02-19T06:39:03;99231.09;;;10.81;77.85
11212;BME280;5663;50.864;12.096;2023-02-19T06:41:31;99229.59;;;10.77;77.85
11212;BME280;5663;50.864;12.096;2023-02-19T06:43:59;99224.53;;;10.74;77.77
11212;BME280;5663;50.864;12.096;2023-02-19T06:46:27;99189.63;;;10.47;77.60
11212;BME280;5663;50.864;12.096;2023-02-19T06:48:54;99209.91;;;10.56;77.68
11212;BME280;5663;50.864;12.096;2023-02-19T06:51:22;99236.09;;;10.69;77.55
11212;BME280;5663;50.864;12.096;2023-02-19T06:53:52;99251.72;;;10.69;77.48
11212;BME280;5663;50.864;12.096;2023-02-19T06:56:24;99245.66;;;10.68;77.31
11212;BME280;5663;50.864;12.096;2023-02-19T06:58:52;99246.75;;;10.64;77.38
11212;BME280;5663;50.864;12.096;2023-02-19T07:01:20;99251.97;;;10.64;77.30
11212;BME280;5663;50.864;12.096;2023-02-19T07:03:48;99249.34;;;10.64;77.52
11212;BME280;5663;50.864;12.096;2023-02-19T07:06:17;99257.16;;;10.64;77.44
11212;BME280;5663;50.864;12.096;2023-02-19T07:08:46;99258.09;;;10.63;77.50
11212;BME280;5663;50.864;12.096;2023-02-19T07:11:15;99260.78;;;10.62;77.49
11212;BME280;5663;50.864;12.096;2023-02-19T07:13:45;99262.75;;;10.56;77.59
11212;BME280;5663;50.864;12.096;2023-02-19T07:16:13;99265.31;;;10.58;77.64
11212;BME280;5663;50.864;12.096;2023-02-19T07:18:43;99256.53;;;10.43;77.60
11212;BME280;5663;50.864;12.096;2023-02-19T07:21:12;99267.47;;;10.50;77.80
11212;BME280;5663;50.864;12.096;2023-02-19T07:23:40;99266.38;;;10.54;78.02
11212;BME280;5663;50.864;12.096;2023-02-19T07:26:09;99275.84;;;10.55;78.18
11212;BME280;5663;50.864;12.096;2023-02-19T07:28:39;99271.50;;;10.55;78.24
11212;BME280;5663;50.864;12.096;2023-02-19T07:31:08;99279.38;;;10.54;78.29
11212;BME280;5663;50.864;12.096;2023-02-19T07:33:36;99293.28;;;10.53;77.93
11212;BME280;5663;50.864;12.096;2023-02-19T07:36:05;99245.75;;;10.16;78.70
11212;BME280;5663;50.864;12.096;2023-02-19T07:38:33;99302.34;;;10.46;78.41
11212;BME280;5663;50.864;12.096;2023-02-19T07:41:03;99296.38;;;10.44;78.74
11212;BME280;5663;50.864;12.096;2023-02-19T07:43:33;99250.97;;;10.16;78.63
11212;BME280;5663;50.864;12.096;2023-02-19T07:46:02;99312.75;;;10.46;79.14
11212;BME280;5663;50.864;12.096;2023-02-19T07:48:31;99298.44;;;10.37;79.21
11212;BME280;5663;50.864;12.096;2023-02-19T07:51:00;99310.97;;;10.46;79.27
11212;BME280;5663;50.864;12.096;2023-02-19T07:53:28;99313.44;;;10.49;79.41
11212;BME280;5663;50.864;12.096;2023-02-19T07:55:58;99314.09;;;10.53;79.49
11212;BME280;5663;50.864;12.096;2023-02-19T07:58:28;99325.09;;;10.58;79.47
11212;BME280;5663;50.864;12.096;2023-02-19T08:00:56;99324.03;;;10.62;79.37
11212;BME280;5663;50.864;12.096;2023-02-19T08:03:23;99328.91;;;10.68;79.45
11212;BME280;5663;50.864;12.096;2023-02-19T08:05:51;99328.91;;;10.68;79.41
11212;BME280;5663;50.864;12.096;2023-02-19T08:08:19;99342.44;;;10.75;79.57
11212;BME280;5663;50.864;12.096;2023-02-19T08:10:47;99353.66;;;10.75;79.42
11212;BME280;5663;50.864;12.096;2023-02-19T08:13:32;99345.88;;;10.75;79.45
11212;BME280;5663;50.864;12.096;2023-02-19T08:16:11;99357.78;;;10.79;79.59
11212;BME280;5663;50.864;12.096;2023-02-19T08:18:40;99354.13;;;10.83;79.58
11212;BME280;5663;50.864;12.096;2023-02-19T08:21:10;99361.00;;;10.84;79.44
11212;BME280;5663;50.864;12.096;2023-02-19T08:23:38;99359.16;;;10.87;79.52
11212;BME280;5663;50.864;12.096;2023-02-19T08:26:06;99370.16;;;10.92;79.37
11212;BME280;5663;50.864;12.096;2023-02-19T08:28:34;99374.28;;;10.96;79.34
11212;BME280;5663;50.864;12.096;2023-02-19T08:31:04;99373.97;;;11.02;79.38
11212;BME280;5663;50.864;12.096;2023-02-19T08:33:33;99379.00;;;11.05;79.28
11212;BME280;5663;50.864;12.096;2023-02-19T08:36:01;99394.53;;;11.06;79.14
11212;BME280;5663;50.864;12.096;2023-02-19T08:38:32;99439.03;;;11.02;78.66
11212;BME280;5663;50.864;12.096;2023-02-19T08:41:03;99436.72;;;10.96;78.41
11212;BME280;5663;50.864;12.096;2023-02-19T08:43:33;99442.41;;;10.87;77.97
11212;BME280;5663;50.864;12.096;2023-02-19T08:46:01;99457.41;;;10.64;77.32
11212;BME280;5663;50.864;12.096;2023-02-19T08:48:29;99460.28;;;10.41;76.95
11212;BME280;5663;50.864;12.096;2023-02-19T08:50:58;99461.59;;;10.32;77.09
11212;BME280;5663;50.864;12.096;2023-02-19T08:53:30;99474.16;;;10.22;77.17
11212;BME280;5663;50.864;12.096;2023-02-19T08:56:03;99483.91;;;10.17;76.60
11212;BME280;5663;50.864;12.096;2023-02-19T08:58:31;99507.88;;;10.05;77.02
11212;BME280;5663;50.864;12.096;2023-02-19T09:00:59;99506.69;;;9.93;76.40
11212;BME280;5663;50.864;12.096;2023-02-19T09:03:27;99507.97;;;9.84;76.13
11212;BME280;5663;50.864;12.096;2023-02-19T09:05:54;99517.50;;;9.65;75.50
11212;BME280;5663;50.864;12.096;2023-02-19T09:08:22;99528.97;;;9.41;76.04
11212;BME280;5663;50.864;12.096;2023-02-19T09:10:58;99527.09;;;9.44;76.42
11212;BME280;5663;50.864;12.096;2023-02-19T09:13:26;99541.06;;;9.42;76.12
11212;BME280;5663;50.864;12.096;2023-02-19T09:15:54;99542.16;;;9.36;76.58
11212;BME280;5663;50.864;12.096;2023-02-19T09:18:23;99533.13;;;9.24;76.15
11212;BME280;5663;50.864;12.096;2023-02-19T09:20:51;99553.78;;;9.27;76.23
11212;BME280;5663;50.864;12.096;2023-02-19T09:23:18;99561.47;;;9.29;76.67
11212;BME280;5663;50.864;12.096;2023-02-19T09:25:46;99576.22;;;9.28;76.40
11212;BME280;5663;50.864;12.096;2023-02-19T09:28:16;99587.00;;;9.19;75.69
11212;BME280;5663;50.864;12.096;2023-02-19T09:30:44;99595.84;;;9.13;76.00
11212;BME280;5663;50.864;12.096;2023-02-19T09:33:11;99596.03;;;9.09;75.51
11212;BME280;5663;50.864;12.096;2023-02-19T09:35:39;99600.50;;;9.05;75.89
11212;BME280;5663;50.864;12.096;2023-02-19T09:38:07;99604.03;;;9.04;75.67
11212;BME280;5663;50.864;12.096;2023-02-19T09:40:36;99600.72;;;9.01;75.43
11212;BME280;5663;50.864;12.096;2023-02-19T09:43:06;99604.06;;;8.82;74.88
11212;BME280;5663;50.864;12.096;2023-02-19T09:45:35;99618.53;;;8.66;75.41
11212;BME280;5663;50.864;12.096;2023-02-19T09:48:04;99617.09;;;8.59;75.80
11212;BME280;5663;50.864;12.096;2023-02-19T09:50:38;99638.28;;;8.69;75.83
11212;BME280;5663;50.864;12.096;2023-02-19T09:53:12;99654.56;;;8.72;75.18
11212;BME280;5663;50.864;12.096;2023-02-19T09:55:43;99661.69;;;8.67;74.16
11212;BME280;5663;50.864;12.096;2023-02-19T09:58:21;99631.66;;;8.39;74.05
11212;BME280;5663;50.864;12.096;2023-02-19T10:00:54;99661.91;;;8.39;73.70
11212;BME280;5663;50.864;12.096;2023-02-19T10:03:25;99664.53;;;8.37;74.85
11212;BME280;5663;50.864;12.096;2023-02-19T10:05:58;99674.69;;;8.44;74.62
11212;BME280;5663;50.864;12.096;2023-02-19T10:08:31;99673.94;;;8.40;74.48
11212;BME280;5663;50.864;12.096;2023-02-19T10:10:59;99681.44;;;8.48;74.32
11212;BME280;5663;50.864;12.096;2023-02-19T10:13:30;99683.13;;;8.49;74.41
11212;BME280;5663;50.864;12.096;2023-02-19T10:16:03;99685.53;;;8.53;74.15
11212;BME280;5663;50.864;12.096;2023-02-19T10:18:37;99701.22;;;8.50;74.49
11212;BME280;5663;50.864;12.096;2023-02-19T10:21:06;99708.19;;;8.48;74.27
11212;BME280;5663;50.864;12.096;2023-02-19T10:23:34;99703.97;;;8.46;74.38
11212;BME280;5663;50.864;12.096;2023-02-19T10:26:04;99709.22;;;8.44;75.00
11212;BME280;5663;50.864;12.096;2023-02-19T10:28:34;99697.50;;;8.32;74.69
11212;BME280;5663;50.864;12.096;2023-02-19T10:31:13;99718.63;;;8.47;74.24
11212;BME280;5663;50.864;12.096;2023-02-19T10:33:48;99716.88;;;8.47;74.68
11212;BME280;5663;50.864;12.096;2023-02-19T10:36:27;99729.00;;;8.47;74.55
11212;BME280;5663;50.864;12.096;2023-02-19T10:38:55;99735.38;;;8.36;73.76
11212;BME280;5663;50.864;12.096;2023-02-19T10:41:25;99747.56;;;8.34;74.01
11212;BME280;5663;50.864;12.096;2023-02-19T10:43:55;99756.47;;;8.26;73.27
11212;BME280;5663;50.864;12.096;2023-02-19T10:46:30;99745.03;;;8.08;73.85
11212;BME280;5663;50.864;12.096;2023-02-19T10:49:01;99778.28;;;8.20;73.88
11212;BME280;5663;50.864;12.096;2023-02-19T10:51:33;99795.41;;;8.24;73.69
11212;BME280;5663;50.864;12.096;2023-02-19T10:54:05;99796.41;;;8.20;73.15
11212;BME280;5663;50.864;12.096;2023-02-19T10:56:34;99799.91;;;8.19;73.30
11212;BME280;5663;50.864;12.096;2023-02-19T10:59:22;99796.63;;;8.14;72.56
11212;BME280;5663;50.864;12.096;2023-02-19T11:01:57;99799.84;;;8.21;73.53
11212;BME280;5663;50.864;12.096;2023-02-19T11:04:26;99796.91;;;8.31;72.96
11212;BME280;5663;50.864;12.096;2023-02-19T11:07:06;99807.88;;;8.39;72.70
11212;BME280;5663;50.864;12.096;2023-02-19T11:09:37;99811.03;;;8.48;73.14
11212;BME280;5663;50.864;12.096;2023-02-19T11:12:07;99808.44;;;8.48;71.88
11212;BME280;5663;50.864;12.096;2023-02-19T11:14:36;99803.94;;;8.53;72.54
11212;BME280;5663;50.864;12.096;2023-02-19T11:17:05;99803.63;;;8.62;72.98
11212;BME280;5663;50.864;12.096;2023-02-19T11:19:36;99805.81;;;8.73;72.74
11212;BME280;5663;50.864;12.096;2023-02-19T11:22:27;99780.97;;;8.67;73.09
11212;BME280;5663;50.864;12.096;2023-02-19T11:24:55;99803.84;;;9.03;73.00
11212;BME280;5663;50.864;12.096;2023-02-19T11:27:26;99805.91;;;9.17;72.91
11212;BME280;5663;50.864;12.096;2023-02-19T11:29:53;99812.66;;;9.21;72.32
11212;BME280;5663;50.864;12.096;2023-02-19T11:32:25;99826.16;;;9.30;72.33
11212;BME280;5663;50.864;12.096;2023-02-19T11:35:16;99833.38;;;9.22;71.25
11212;BME280;5663;50.864;12.096;2023-02-19T11:37:56;99837.88;;;9.17;71.36
11212;BME280;5663;50.864;12.096;2023-02-19T11:40:34;99823.03;;;8.99;71.70
11212;BME280;5663;50.864;12.096;2023-02-19T11:43:08;99858.09;;;9.09;71.33
11212;BME280;5663;50.864;12.096;2023-02-19T11:45:43;99864.53;;;8.99;71.28
11212;BME280;5663;50.864;12.096;2023-02-19T11:48:26;99866.56;;;8.91;70.59
11212;BME280;5663;50.864;12.096;2023-02-19T11:51:13;99875.44;;;8.83;70.54
11212;BME280;5663;50.864;12.096;2023-02-19T11:53:48;99866.88;;;8.81;70.67
11212;BME280;5663;50.864;12.096;2023-02-19T11:56:27;99866.88;;;8.81;70.87
11212;BME280;5663;50.864;12.096;2023-02-19T11:59:02;99870.16;;;8.86;70.55
11212;BME280;5663;50.864;12.096;2023-02-19T12:01:52;99867.28;;;8.94;70.23
11212;BME280;5663;50.864;12.096;2023-02-19T12:04:53;99861.13;;;8.97;70.41
11212;BME280;5663;50.864;12.096;2023-02-19T12:07:42;99844.16;;;8.88;70.48
11212;BME280;5663;50.864;12.096;2023-02-19T12:10:20;99865.13;;;9.05;70.43
11212;BME280;5663;50.864;12.096;2023-02-19T12:12:58;99874.56;;;9.08;70.02
11212;BME280;5663;50.864;12.096;2023-02-19T12:15:45;99880.56;;;9.10;70.98
11212;BME280;5663;50.864;12.096;2023-02-19T12:18:37;99876.13;;;9.12;71.02
11212;BME280;5663;50.864;12.096;2023-02-19T12:21:22;99808.88;;;8.84;70.72
11212;BME280;5663;50.864;12.096;2023-02-19T12:24:07;99877.25;;;9.28;71.26
11212;BME280;5663;50.864;12.096;2023-02-19T12:26:45;99868.34;;;9.35;71.03
11212;BME280;5663;50.864;12.096;2023-02-19T12:29:31;99876.88;;;9.39;70.44
11212;BME280;5663;50.864;12.096;2023-02-19T12:32:34;99879.34;;;9.42;69.68
11212;BME280;5663;50.864;12.096;2023-02-19T12:35:23;99876.75;;;9.42;70.50
11212;BME280;5663;50.864;12.096;2023-02-19T12:38:03;99864.72;;;9.40;70.43
11212;BME280;5663;50.864;12.096;2023-02-19T12:40:45;99867.75;;;9.51;69.73
11212;BME280;5663;50.864;12.096;2023-02-19T12:43:18;99874.53;;;9.55;69.68
11212;BME280;5663;50.864;12.096;2023-02-19T12:45:51;99877.03;;;9.58;69.75
11212;BME280;5663;50.864;12.096;2023-02-19T12:48:27;99878.63;;;9.60;69.20
11212;BME280;5663;50.864;12.096;2023-02-19T12:51:03;99888.28;;;9.57;68.91
11212;BME280;5663;50.864;12.096;2023-02-19T12:53:39;99884.81;;;9.58;68.88
11212;BME280;5663;50.864;12.096;2023-02-19T12:56:13;99884.66;;;9.61;68.70
11212;BME280;5663;50.864;12.096;2023-02-19T12:58:47;99882.81;;;9.65;68.68
11212;BME280;5663;50.864;12.096;2023-02-19T13:01:21;99885.16;;;9.71;68.15
11212;BME280;5663;50.864;12.096;2023-02-19T13:04:04;99887.59;;;9.75;67.91
11212;BME280;5663;50.864;12.096;2023-02-19T13:06:39;99899.66;;;9.76;67.37
11212;BME280;5663;50.864;12.096;2023-02-19T13:09:13;99887.34;;;9.59;66.86
11212;BME280;5663;50.864;12.096;2023-02-19T13:11:44;99894.03;;;9.65;66.99
11212;BME280;5663;50.864;12.096;2023-02-19T13:14:19;99905.34;;;9.64;66.30
11212;BME280;5663;50.864;12.096;2023-02-19T13:16:51;99914.94;;;9.62;66.38
11212;BME280;5663;50.864;12.096;2023-02-19T13:19:22;99927.09;;;9.61;66.24
11212;BME280;5663;50.864;12.096;2023-02-19T13:21:55;99929.84;;;9.57;66.06
11212;BME280;5663;50.864;12.096;2023-02-19T13:24:45;99918.00;;;9.50;65.66
11212;BME280;5663;50.864;12.096;2023-02-19T13:27:41;99931.84;;;9.50;66.07
11212;BME280;5663;50.864;12.096;2023-02-19T13:30:37;99924.78;;;9.54;66.65
11212;BME280;5663;50.864;12.096;2023-02-19T13:33:23;99927.38;;;9.54;66.25
11212;BME280;5663;50.864;12.096;2023-02-19T13:36:08;99924.53;;;9.60;67.28